DEEDL EDFA-EDFE
Flight info
| Callsign | DEEDL |
|---|---|
| Flight time | N/A |
| Altitude | 1500 |
| Route | DCT |
| Aircraft | C172/L-VGDW/C |
Departure
| Time | N/A |
|---|---|
| Airport | EDFA |
Arrival
| Time | 2026-04-23 10:07 |
|---|---|
| Airport | Frankfurt-Egelsbach Airport (EDFE) |
| Time | Latitude | Longitude | Altitude | Speed | Heading |
|---|---|---|---|---|---|
| 2026-04-23 09:49 | 50.29039 | 8.53924 | 1086 ft | 0 kts | 57° |
| 2026-04-23 09:50 | 50.29056 | 8.53925 | 1087 ft | 12 kts | 324° |
| 2026-04-23 09:50 | 50.28950 | 8.53658 | 1094 ft | 65 kts | 236° |
| 2026-04-23 09:51 | 50.28594 | 8.52885 | 1315 ft | 95 kts | 236° |
| 2026-04-23 09:51 | 50.28204 | 8.52009 | 1661 ft | 103 kts | 236° |
| 2026-04-23 09:51 | 50.28441 | 8.51349 | 1945 ft | 106 kts | 8° |
| 2026-04-23 09:51 | 50.29118 | 8.52099 | 1876 ft | 134 kts | 41° |
| 2026-04-23 09:52 | 50.29700 | 8.53235 | 1907 ft | 138 kts | 67° |
| 2026-04-23 09:52 | 50.30041 | 8.54630 | 1977 ft | 137 kts | 68° |
| 2026-04-23 09:52 | 50.30367 | 8.56032 | 2044 ft | 137 kts | 68° |
| 2026-04-23 09:52 | 50.30675 | 8.57445 | 2084 ft | 138 kts | 69° |
| 2026-04-23 09:53 | 50.30948 | 8.58899 | 2094 ft | 141 kts | 81° |
| 2026-04-23 09:53 | 50.30682 | 8.60364 | 2097 ft | 144 kts | 117° |
| 2026-04-23 09:53 | 50.30155 | 8.61717 | 2090 ft | 146 kts | 123° |
| 2026-04-23 09:53 | 50.29593 | 8.63038 | 2088 ft | 146 kts | 124° |
| 2026-04-23 09:54 | 50.29010 | 8.64324 | 2056 ft | 144 kts | 124° |
| 2026-04-23 09:54 | 50.28417 | 8.65615 | 1928 ft | 151 kts | 126° |
| 2026-04-23 09:54 | 50.27797 | 8.66968 | 1822 ft | 154 kts | 124° |
| 2026-04-23 09:54 | 50.27169 | 8.68329 | 1694 ft | 155 kts | 125° |
| 2026-04-23 09:55 | 50.26546 | 8.69693 | 1543 ft | 153 kts | 125° |
| 2026-04-23 09:55 | 50.25933 | 8.71043 | 1417 ft | 152 kts | 125° |
| 2026-04-23 09:55 | 50.25265 | 8.72305 | 1301 ft | 151 kts | 145° |
| 2026-04-23 09:55 | 50.24260 | 8.72732 | 1244 ft | 150 kts | 169° |
| 2026-04-23 09:56 | 50.23414 | 8.73598 | 1219 ft | 147 kts | 131° |
| 2026-04-23 09:56 | 50.22774 | 8.74830 | 1204 ft | 145 kts | 127° |
| 2026-04-23 09:56 | 50.22172 | 8.76086 | 1204 ft | 145 kts | 126° |
| 2026-04-23 09:56 | 50.21548 | 8.77315 | 1203 ft | 145 kts | 139° |
| 2026-04-23 09:57 | 50.20654 | 8.78049 | 1208 ft | 146 kts | 156° |
| 2026-04-23 09:57 | 50.19725 | 8.78692 | 1204 ft | 146 kts | 157° |
| 2026-04-23 09:57 | 50.18789 | 8.79310 | 1199 ft | 145 kts | 158° |
| 2026-04-23 09:57 | 50.17856 | 8.79920 | 1206 ft | 146 kts | 158° |
| 2026-04-23 09:58 | 50.16908 | 8.80534 | 1159 ft | 150 kts | 158° |
| 2026-04-23 09:58 | 50.15948 | 8.81148 | 1077 ft | 151 kts | 158° |
| 2026-04-23 09:58 | 50.14987 | 8.81766 | 1025 ft | 148 kts | 158° |
| 2026-04-23 09:58 | 50.14039 | 8.82378 | 1011 ft | 147 kts | 158° |
| 2026-04-23 09:59 | 50.13104 | 8.82989 | 1006 ft | 145 kts | 158° |
| 2026-04-23 09:59 | 50.12173 | 8.83596 | 1011 ft | 145 kts | 158° |
| 2026-04-23 09:59 | 50.11235 | 8.84207 | 1019 ft | 147 kts | 158° |
| 2026-04-23 09:59 | 50.10247 | 8.84501 | 1009 ft | 145 kts | 184° |
| 2026-04-23 10:00 | 50.09235 | 8.84465 | 996 ft | 146 kts | 184° |
| 2026-04-23 10:00 | 50.08224 | 8.84405 | 996 ft | 145 kts | 184° |
| 2026-04-23 10:00 | 50.07217 | 8.84333 | 1005 ft | 145 kts | 184° |
| 2026-04-23 10:00 | 50.06211 | 8.84233 | 1013 ft | 146 kts | 186° |
| 2026-04-23 10:01 | 50.05219 | 8.84003 | 1012 ft | 147 kts | 194° |
| 2026-04-23 10:01 | 50.04231 | 8.83610 | 997 ft | 145 kts | 197° |
| 2026-04-23 10:01 | 50.03260 | 8.83177 | 1005 ft | 145 kts | 198° |
| 2026-04-23 10:01 | 50.02293 | 8.82730 | 1008 ft | 146 kts | 198° |
| 2026-04-23 10:02 | 50.01318 | 8.82279 | 1000 ft | 146 kts | 198° |
| 2026-04-23 10:02 | 50.00406 | 8.81642 | 993 ft | 143 kts | 227° |
| 2026-04-23 10:02 | 49.99880 | 8.80358 | 993 ft | 141 kts | 248° |
| 2026-04-23 10:02 | 49.99502 | 8.78961 | 994 ft | 140 kts | 251° |
| 2026-04-23 10:03 | 49.99161 | 8.77543 | 1002 ft | 140 kts | 252° |
| 2026-04-23 10:03 | 49.98830 | 8.76105 | 1008 ft | 142 kts | 253° |
| 2026-04-23 10:03 | 49.98477 | 8.74657 | 1017 ft | 144 kts | 250° |
| 2026-04-23 10:03 | 49.98088 | 8.73250 | 1007 ft | 142 kts | 249° |
| 2026-04-23 10:04 | 49.97694 | 8.71881 | 1013 ft | 137 kts | 248° |
| 2026-04-23 10:04 | 49.97309 | 8.70574 | 1010 ft | 127 kts | 248° |
| 2026-04-23 10:04 | 49.97016 | 8.69338 | 987 ft | 118 kts | 272° |
| 2026-04-23 10:04 | 49.97160 | 8.68114 | 1011 ft | 116 kts | 286° |
| 2026-04-23 10:05 | 49.97348 | 8.66883 | 999 ft | 116 kts | 288° |
| 2026-04-23 10:05 | 49.97548 | 8.65662 | 1013 ft | 117 kts | 288° |
| 2026-04-23 10:05 | 49.97693 | 8.64461 | 997 ft | 111 kts | 271° |
| 2026-04-23 10:05 | 49.97610 | 8.63285 | 993 ft | 105 kts | 265° |
| 2026-04-23 10:06 | 49.97495 | 8.62247 | 995 ft | 92 kts | 265° |
| 2026-04-23 10:06 | 49.97389 | 8.61288 | 1017 ft | 83 kts | 261° |
| 2026-04-23 10:06 | 49.96993 | 8.60749 | 915 ft | 84 kts | 191° |
| 2026-04-23 10:06 | 49.96432 | 8.60823 | 888 ft | 80 kts | 171° |
| 2026-04-23 10:07 | 49.95968 | 8.61225 | 797 ft | 88 kts | 103° |
| 2026-04-23 10:07 | 49.95988 | 8.62140 | 606 ft | 84 kts | 84° |
| 2026-04-23 10:07 | 49.96028 | 8.62984 | 437 ft | 67 kts | 87° |
| 2026-04-23 10:07 | 49.96052 | 8.63578 | 386 ft | 43 kts | 86° |
| 2026-04-23 10:08 | 49.96072 | 8.63946 | 389 ft | 29 kts | 85° |
| 2026-04-23 10:08 | 49.96085 | 8.64224 | 390 ft | 23 kts | 84° |
| 2026-04-23 10:08 | 49.96115 | 8.64236 | 389 ft | 9 kts | 305° |
| 2026-04-23 10:09 | 49.96235 | 8.64152 | 388 ft | 8 kts | 8° |
| 2026-04-23 10:09 | 49.96250 | 8.64191 | 388 ft | 1 kts | 143° |
| 2026-04-23 10:09 | 49.96249 | 8.64192 | 388 ft | 0 kts | 143° |